createdAt,value
2018-07-13T00:00:15.019Z,99.90
2018-07-13T00:02:44.146Z,99.90
2018-07-13T00:05:13.278Z,99.90
2018-07-13T00:10:13.453Z,99.90
2018-07-13T00:12:42.842Z,99.90
2018-07-13T00:15:12.943Z,99.90
2018-07-13T00:20:11.423Z,99.90
2018-07-13T00:22:40.770Z,99.90
2018-07-13T00:25:10.211Z,99.90
2018-07-13T00:27:40.055Z,99.90
2018-07-13T00:32:38.391Z,99.90
2018-07-13T00:35:08.010Z,99.90
2018-07-13T00:37:37.106Z,99.90
2018-07-13T00:40:06.921Z,99.90
2018-07-13T00:42:36.139Z,99.90
2018-07-13T00:45:05.266Z,99.90
2018-07-13T00:47:34.935Z,99.90
2018-07-13T00:50:04.468Z,99.90
2018-07-13T00:52:33.595Z,99.90
2018-07-13T00:55:02.902Z,99.90
2018-07-13T00:57:32.046Z,99.90
2018-07-13T01:00:01.718Z,99.90
2018-07-13T01:02:30.805Z,99.90
2018-07-13T01:04:59.942Z,99.90
2018-07-13T01:07:29.822Z,99.90
2018-07-13T01:09:59.383Z,99.90
2018-07-13T01:12:28.911Z,99.90
2018-07-13T01:14:58.302Z,99.90
2018-07-13T01:17:27.839Z,99.90
2018-07-13T01:19:57.831Z,99.90
2018-07-13T01:22:27.221Z,99.90
2018-07-13T01:24:56.742Z,99.90
2018-07-13T01:27:28.147Z,99.90
2018-07-13T01:29:58.574Z,99.90
2018-07-13T01:32:28.153Z,99.90
2018-07-13T01:34:57.386Z,99.90
2018-07-13T01:37:26.671Z,99.90
2018-07-13T01:39:55.683Z,99.90
2018-07-13T01:42:24.754Z,99.90
2018-07-13T01:44:54.394Z,99.90
2018-07-13T01:47:23.543Z,99.90
2018-07-13T01:49:52.896Z,99.90
2018-07-13T01:52:22.003Z,99.90
2018-07-13T01:54:51.084Z,99.90
2018-07-13T01:57:20.163Z,99.90
2018-07-13T01:59:49.282Z,99.90
2018-07-13T02:02:18.366Z,99.90
2018-07-13T02:04:47.434Z,99.90
2018-07-13T02:07:17.346Z,99.90
2018-07-13T02:09:46.426Z,99.90
2018-07-13T02:12:15.996Z,99.90
2018-07-13T02:14:45.949Z,99.90
2018-07-13T02:17:15.354Z,99.90
2018-07-13T02:19:44.451Z,99.90
2018-07-13T02:22:14.254Z,99.90
2018-07-13T02:24:44.721Z,99.90
2018-07-13T02:27:15.443Z,99.90
2018-07-13T02:29:44.810Z,99.90
2018-07-13T02:32:14.680Z,99.90
2018-07-13T02:34:44.658Z,99.90
2018-07-13T02:37:14.517Z,99.90
2018-07-13T02:39:43.712Z,99.90
2018-07-13T02:42:13.381Z,99.90
2018-07-13T02:44:43.419Z,99.90
2018-07-13T02:47:13.437Z,99.90
2018-07-13T02:49:43.144Z,99.90
2018-07-13T02:52:12.375Z,99.90
2018-07-13T02:54:42.227Z,99.90
2018-07-13T02:57:12.339Z,99.90
2018-07-13T02:59:41.565Z,99.90
2018-07-13T03:02:11.188Z,99.90
2018-07-13T03:04:40.342Z,99.90
2018-07-13T03:09:38.326Z,99.90
2018-07-13T03:12:08.466Z,99.90
2018-07-13T03:14:38.209Z,99.90
2018-07-13T03:17:07.323Z,99.90
2018-07-13T03:19:36.410Z,99.90
2018-07-13T03:22:06.983Z,99.90
2018-07-13T03:24:38.573Z,99.90
2018-07-13T03:27:09.124Z,99.90
2018-07-13T03:29:38.342Z,99.90
2018-07-13T03:32:10.322Z,99.90
2018-07-13T03:34:39.658Z,99.90
2018-07-13T03:37:10.009Z,99.90
2018-07-13T03:39:39.947Z,99.90
2018-07-13T03:42:09.340Z,99.90
2018-07-13T03:44:38.512Z,99.90
2018-07-13T03:47:08.833Z,99.90
2018-07-13T03:49:37.877Z,99.90
2018-07-13T03:52:07.525Z,99.90
2018-07-13T03:54:36.611Z,99.90
2018-07-13T03:57:05.683Z,99.90
2018-07-13T04:02:31.727Z,99.90
2018-07-13T04:05:00.882Z,99.90
2018-07-13T04:07:30.271Z,99.90
2018-07-13T04:09:59.398Z,99.90
2018-07-13T04:12:29.430Z,99.90
2018-07-13T04:14:58.589Z,99.90
2018-07-13T04:17:28.309Z,99.90
2018-07-13T04:19:58.846Z,99.90
2018-07-13T04:22:28.027Z,99.90
2018-07-13T04:24:57.596Z,99.90
2018-07-13T04:27:26.986Z,99.90
2018-07-13T04:29:56.970Z,99.90
2018-07-13T04:32:27.994Z,99.90
2018-07-13T04:34:58.578Z,99.90
2018-07-13T04:37:27.682Z,99.90
2018-07-13T04:39:57.154Z,99.90
2018-07-13T04:42:26.571Z,99.90
2018-07-13T04:44:57.178Z,99.90
2018-07-13T04:47:26.794Z,99.90
2018-07-13T04:49:56.612Z,99.90
2018-07-13T04:52:27.021Z,99.90
2018-07-13T04:54:56.278Z,99.90
2018-07-13T04:57:25.383Z,99.90
2018-07-13T04:59:54.521Z,99.90
2018-07-13T05:02:24.458Z,99.90
2018-07-13T05:04:53.582Z,99.90
2018-07-13T05:07:22.708Z,99.90
2018-07-13T05:09:51.815Z,99.90
2018-07-13T05:12:21.675Z,99.90
2018-07-13T05:14:50.827Z,99.90
2018-07-13T05:17:19.935Z,99.90
2018-07-13T05:19:49.054Z,99.90
2018-07-13T05:24:48.366Z,99.90
2018-07-13T05:27:18.062Z,99.90
2018-07-13T05:29:47.894Z,99.90
2018-07-13T05:32:18.184Z,99.90
2018-07-13T05:34:47.541Z,99.90
2018-07-13T05:37:17.314Z,99.90
2018-07-13T05:39:46.782Z,99.90
2018-07-13T05:42:16.873Z,99.90
2018-07-13T05:44:45.855Z,99.90
2018-07-13T05:47:15.013Z,99.90
2018-07-13T05:49:44.199Z,99.90
2018-07-13T05:52:13.279Z,99.90
2018-07-13T05:54:42.581Z,99.90
2018-07-13T05:57:12.682Z,99.90
2018-07-13T05:59:41.802Z,99.90
2018-07-13T06:02:12.816Z,99.90
2018-07-13T06:04:41.920Z,99.90
2018-07-13T06:07:11.028Z,99.90
2018-07-13T06:09:41.165Z,99.20
2018-07-13T06:12:10.730Z,98.90
2018-07-13T06:14:40.012Z,98.40
2018-07-13T06:17:09.082Z,97.50
2018-07-13T06:19:40.352Z,95.70
2018-07-13T06:22:09.524Z,94.80
2018-07-13T06:24:38.738Z,93.90
2018-07-13T06:27:08.845Z,93.90
2018-07-13T06:29:38.027Z,93.80
2018-07-13T06:32:07.766Z,94.00
2018-07-13T06:34:37.018Z,94.00
2018-07-13T06:37:06.479Z,93.40
2018-07-13T06:39:42.413Z,92.40
2018-07-13T06:42:11.546Z,92.60
2018-07-13T06:47:12.204Z,90.10
2018-07-13T06:52:10.822Z,87.70
2018-07-13T06:54:39.968Z,88.40
2018-07-13T06:57:09.467Z,88.30
2018-07-13T06:59:38.558Z,89.00
2018-07-13T07:02:08.198Z,88.80
2018-07-13T07:04:39.241Z,90.00
2018-07-13T07:07:17.856Z,88.00
2018-07-13T07:09:50.926Z,86.50
2018-07-13T07:13:02.736Z,84.40
2018-07-13T07:15:31.906Z,85.10
2018-07-13T07:18:01.011Z,89.50
2018-07-13T07:20:30.110Z,89.10
2018-07-13T07:22:59.735Z,87.40
2018-07-13T07:25:32.142Z,86.40
2018-07-13T07:28:01.284Z,85.80
2018-07-13T07:30:32.003Z,87.20
2018-07-13T07:33:01.635Z,85.00
2018-07-13T07:35:31.022Z,85.20
2018-07-13T07:38:00.003Z,85.10
2018-07-13T07:40:29.732Z,85.50
2018-07-13T07:42:58.847Z,83.40
2018-07-13T07:45:27.939Z,83.20
2018-07-13T07:47:58.079Z,82.30
2018-07-13T07:50:27.417Z,80.50
2018-07-13T07:52:56.690Z,81.30
2018-07-13T07:55:25.807Z,78.20
2018-07-13T07:57:54.898Z,74.60
2018-07-13T08:00:26.271Z,73.00
2018-07-13T08:02:55.948Z,75.30
2018-07-13T08:05:25.047Z,72.50
2018-07-13T08:07:54.559Z,69.50
2018-07-13T08:10:23.951Z,68.10
2018-07-13T08:12:53.237Z,63.30
2018-07-13T08:15:22.511Z,59.60
2018-07-13T08:17:51.790Z,57.50
2018-07-13T08:20:27.328Z,55.50
2018-07-13T08:22:58.091Z,55.70
2018-07-13T08:25:27.820Z,54.20
2018-07-13T08:28:01.270Z,53.70
2018-07-13T08:30:41.771Z,53.90
2018-07-13T08:33:11.808Z,54.60
2018-07-13T08:35:41.600Z,55.00
2018-07-13T08:38:10.806Z,53.60
2018-07-13T08:40:39.937Z,53.00
2018-07-13T08:43:09.078Z,52.50
2018-07-13T08:45:38.192Z,51.00
2018-07-13T08:51:05.096Z,49.80
2018-07-13T08:53:34.455Z,51.90
2018-07-13T08:56:04.099Z,51.20
2018-07-13T08:58:33.034Z,51.80
2018-07-13T09:01:02.229Z,53.40
2018-07-13T09:03:31.351Z,53.30
2018-07-13T09:06:00.433Z,54.10
2018-07-13T09:08:29.515Z,54.00
2018-07-13T09:10:58.583Z,53.70
2018-07-13T09:13:27.654Z,52.10
2018-07-13T09:15:56.759Z,51.80
2018-07-13T09:18:25.855Z,50.00
2018-07-13T09:20:54.962Z,51.20
2018-07-13T09:23:24.551Z,50.70
2018-07-13T09:25:53.642Z,50.40
2018-07-13T09:28:22.772Z,49.00
2018-07-13T09:30:51.883Z,50.40
2018-07-13T09:33:21.245Z,51.50
2018-07-13T09:35:51.241Z,52.70
2018-07-13T09:38:21.205Z,52.00
2018-07-13T09:40:51.395Z,51.90
2018-07-13T09:43:20.803Z,51.70
2018-07-13T09:45:49.922Z,53.00
2018-07-13T09:48:19.082Z,55.80
2018-07-13T09:50:48.187Z,52.60
2018-07-13T09:53:17.649Z,51.70
2018-07-13T09:55:46.779Z,49.20
2018-07-13T09:58:16.393Z,48.70
2018-07-13T10:00:52.176Z,48.60
2018-07-13T10:03:21.950Z,50.60
2018-07-13T10:05:51.807Z,51.90
2018-07-13T10:08:21.465Z,51.60
2018-07-13T10:10:50.747Z,49.90
2018-07-13T10:13:21.316Z,49.60
2018-07-13T10:15:50.670Z,49.80
2018-07-13T10:18:20.703Z,51.20
2018-07-13T10:20:50.282Z,51.10
2018-07-13T10:23:20.154Z,50.50
2018-07-13T10:25:52.201Z,51.80
2018-07-13T10:28:21.298Z,51.90
2018-07-13T10:30:50.473Z,50.90
2018-07-13T10:33:21.059Z,52.20
2018-07-13T10:35:50.465Z,52.10
2018-07-13T10:38:20.220Z,52.60
2018-07-13T10:40:49.698Z,52.70
2018-07-13T10:43:18.824Z,51.20
2018-07-13T10:45:48.895Z,49.50
2018-07-13T10:48:17.924Z,49.30
2018-07-13T10:50:47.014Z,49.30
2018-07-13T10:53:16.130Z,48.70
2018-07-13T10:55:45.918Z,48.60
2018-07-13T10:58:14.979Z,48.90
2018-07-13T11:00:44.515Z,47.90
2018-07-13T11:03:13.987Z,46.00
2018-07-13T11:05:43.111Z,46.30
2018-07-13T11:08:12.290Z,47.10
2018-07-13T11:10:41.583Z,44.60
2018-07-13T11:15:39.619Z,49.00
2018-07-13T11:18:08.721Z,48.90
2018-07-13T11:20:37.802Z,49.40
2018-07-13T11:23:06.894Z,48.10
2018-07-13T11:25:35.959Z,47.90
2018-07-13T11:28:05.754Z,47.30
2018-07-13T11:30:34.890Z,45.40
2018-07-13T11:33:04.003Z,44.90
2018-07-13T11:35:33.175Z,45.70
2018-07-13T11:38:03.502Z,44.30
2018-07-13T11:40:32.630Z,44.10
2018-07-13T11:43:01.750Z,43.20
2018-07-13T11:45:30.887Z,41.90
2018-07-13T11:47:59.959Z,41.30
2018-07-13T11:50:29.255Z,39.10
2018-07-13T11:53:00.635Z,38.80
2018-07-13T11:55:29.730Z,37.40
2018-07-13T11:57:59.098Z,37.40
2018-07-13T12:00:28.864Z,38.10
2018-07-13T12:02:58.210Z,39.20
2018-07-13T12:05:28.027Z,41.20
2018-07-13T12:07:57.731Z,41.30
2018-07-13T12:10:27.012Z,43.20
2018-07-13T12:12:56.319Z,45.30
2018-07-13T12:15:25.771Z,44.30
2018-07-13T12:17:55.415Z,42.50
2018-07-13T12:20:25.058Z,41.00
2018-07-13T12:22:54.818Z,39.20
2018-07-13T12:25:24.339Z,37.50
2018-07-13T12:27:54.326Z,38.50
2018-07-13T12:32:53.262Z,35.40
2018-07-13T12:35:23.042Z,34.50
2018-07-13T12:37:53.575Z,32.80
2018-07-13T12:40:22.657Z,34.10
2018-07-13T12:42:52.226Z,33.20
2018-07-13T12:45:21.448Z,38.70
2018-07-13T12:47:50.533Z,40.50
2018-07-13T12:50:19.607Z,41.40
2018-07-13T12:52:48.713Z,42.50
2018-07-13T12:55:17.786Z,41.60
2018-07-13T12:57:47.406Z,41.40
2018-07-13T13:00:17.318Z,40.00
2018-07-13T13:02:46.414Z,40.40
2018-07-13T13:05:15.506Z,41.60
2018-07-13T13:07:44.618Z,40.80
2018-07-13T13:10:13.702Z,40.30
2018-07-13T13:12:43.088Z,42.20
2018-07-13T13:15:12.638Z,43.40
2018-07-13T13:17:42.027Z,43.30
2018-07-13T13:20:12.959Z,42.10
2018-07-13T13:22:43.135Z,41.60
2018-07-13T13:25:12.230Z,40.90
2018-07-13T13:27:41.299Z,40.50
2018-07-13T13:30:10.511Z,39.90
2018-07-13T13:32:39.612Z,41.20
2018-07-13T13:35:08.693Z,42.00
2018-07-13T13:37:37.815Z,40.40
2018-07-13T13:40:06.949Z,39.70
2018-07-13T13:42:36.012Z,41.00
2018-07-13T13:45:05.123Z,40.00
2018-07-13T13:47:34.199Z,40.10
2018-07-13T13:50:03.266Z,38.50
2018-07-13T13:52:32.449Z,37.10
2018-07-13T13:55:01.582Z,39.00
2018-07-13T13:57:30.955Z,38.60
2018-07-13T14:00:00.136Z,38.80
2018-07-13T14:02:29.658Z,38.60
2018-07-13T14:04:58.788Z,38.60
2018-07-13T14:07:27.870Z,38.70
2018-07-13T14:09:56.957Z,39.10
2018-07-13T14:12:26.134Z,37.90
2018-07-13T14:14:55.271Z,38.60
2018-07-13T14:17:24.274Z,37.10
2018-07-13T14:19:53.410Z,36.30
2018-07-13T14:22:23.210Z,35.40
2018-07-13T14:24:52.281Z,36.80
2018-07-13T14:27:21.414Z,37.40
2018-07-13T14:29:50.895Z,36.30
2018-07-13T14:32:19.975Z,37.50
2018-07-13T14:34:49.066Z,38.90
2018-07-13T14:37:18.147Z,39.70
2018-07-13T14:39:47.230Z,39.40
2018-07-13T14:42:16.810Z,40.10
2018-07-13T14:44:45.858Z,39.10
2018-07-13T14:47:14.970Z,39.40
2018-07-13T14:49:44.055Z,39.60
2018-07-13T14:52:13.189Z,38.10
2018-07-13T14:54:42.835Z,37.10
2018-07-13T14:57:12.718Z,35.10
2018-07-13T14:59:41.881Z,37.10
2018-07-13T15:02:11.287Z,36.30
2018-07-13T15:04:41.526Z,36.30
2018-07-13T15:07:11.294Z,36.20
2018-07-13T15:09:41.200Z,35.40
2018-07-13T15:12:10.942Z,36.80
2018-07-13T15:14:40.910Z,37.70
2018-07-13T15:17:10.967Z,37.70
2018-07-13T15:19:40.015Z,36.90
2018-07-13T15:22:10.431Z,36.60
2018-07-13T15:24:39.547Z,37.20
2018-07-13T15:27:08.622Z,37.60
2018-07-13T15:29:37.879Z,38.20
2018-07-13T15:32:07.225Z,38.80
2018-07-13T15:34:36.299Z,39.50
2018-07-13T15:37:05.482Z,38.20
2018-07-13T15:39:35.052Z,37.90
2018-07-13T15:42:04.176Z,37.50
2018-07-13T15:44:33.286Z,36.70
2018-07-13T15:47:02.387Z,37.10
2018-07-13T15:49:31.495Z,37.00
2018-07-13T15:52:00.574Z,36.70
2018-07-13T15:54:30.031Z,36.50
2018-07-13T15:56:59.139Z,36.50
2018-07-13T15:59:28.213Z,35.30
2018-07-13T16:01:57.749Z,35.70
2018-07-13T16:04:27.630Z,37.80
2018-07-13T16:06:56.702Z,38.00
2018-07-13T16:09:27.006Z,36.60
2018-07-13T16:11:56.553Z,37.40
2018-07-13T16:14:25.676Z,37.70
2018-07-13T16:16:54.783Z,37.30
2018-07-13T16:19:24.630Z,38.20
2018-07-13T16:21:53.703Z,39.60
2018-07-13T16:24:22.814Z,38.70
2018-07-13T16:26:51.962Z,39.20
2018-07-13T16:29:22.378Z,39.00
2018-07-13T16:31:51.731Z,37.70
2018-07-13T16:34:21.034Z,38.40
2018-07-13T16:36:50.870Z,38.30
2018-07-13T16:39:20.926Z,38.40
2018-07-13T16:41:50.803Z,37.60
2018-07-13T16:44:20.678Z,39.30
2018-07-13T16:46:50.595Z,40.30
2018-07-13T16:49:20.043Z,41.00
2018-07-13T16:51:49.345Z,42.50
2018-07-13T16:54:18.674Z,42.60
2018-07-13T16:56:48.498Z,42.20
2018-07-13T16:59:18.575Z,41.90
2018-07-13T17:01:48.874Z,42.10
2018-07-13T17:04:17.999Z,42.10
2018-07-13T17:06:47.322Z,42.90
2018-07-13T17:09:17.799Z,42.80
2018-07-13T17:11:47.704Z,42.50
2018-07-13T17:14:16.792Z,41.40
2018-07-13T17:16:45.886Z,40.80
2018-07-13T17:19:15.183Z,41.00
2018-07-13T17:21:44.287Z,41.90
2018-07-13T17:24:13.623Z,43.40
2018-07-13T17:26:44.473Z,44.80
2018-07-13T17:29:14.038Z,45.90
2018-07-13T17:31:43.100Z,46.10
2018-07-13T17:34:12.299Z,46.20
2018-07-13T17:36:41.412Z,45.60
2018-07-13T17:39:10.510Z,46.50
2018-07-13T17:41:40.395Z,47.40
2018-07-13T17:44:11.683Z,47.60
2018-07-13T17:46:41.040Z,48.40
2018-07-13T17:49:10.148Z,47.90
2018-07-13T17:51:40.094Z,48.40
2018-07-13T17:54:09.163Z,48.80
2018-07-13T17:56:38.251Z,47.90
2018-07-13T17:59:07.601Z,48.10
2018-07-13T18:01:37.278Z,48.50
2018-07-13T18:04:06.688Z,49.20
2018-07-13T18:06:36.054Z,49.50
2018-07-13T18:09:06.393Z,50.70
2018-07-13T18:11:35.694Z,50.70
2018-07-13T18:14:04.993Z,52.40
2018-07-13T18:16:34.310Z,52.00
2018-07-13T18:19:03.635Z,50.50
2018-07-13T18:21:32.991Z,51.70
2018-07-13T18:24:02.224Z,51.20
2018-07-13T18:26:31.562Z,51.60
2018-07-13T18:29:00.866Z,51.70
2018-07-13T18:31:30.435Z,51.90
2018-07-13T18:33:59.791Z,52.00
2018-07-13T18:36:29.167Z,51.50
2018-07-13T18:38:58.506Z,51.80
2018-07-13T18:41:27.762Z,51.80
2018-07-13T18:43:56.846Z,52.10
2018-07-13T18:46:25.977Z,51.90
2018-07-13T18:48:55.223Z,51.40
2018-07-13T18:51:24.481Z,51.90
2018-07-13T18:53:53.810Z,52.70
2018-07-13T18:56:23.150Z,54.50
2018-07-13T18:58:52.417Z,53.80
2018-07-13T19:01:21.615Z,55.90
2018-07-13T19:03:50.880Z,54.80
2018-07-13T19:06:20.359Z,56.60
2018-07-13T19:08:49.518Z,56.50
2018-07-13T19:11:19.920Z,57.50
2018-07-13T19:13:49.315Z,58.10
2018-07-13T19:16:18.559Z,57.80
2018-07-13T19:18:48.044Z,60.90
2018-07-13T19:21:17.282Z,62.10
2018-07-13T19:23:46.362Z,62.20
2018-07-13T19:26:16.381Z,63.80
2018-07-13T19:28:45.613Z,62.00
2018-07-13T19:31:14.719Z,63.00
2018-07-13T19:33:43.811Z,65.10
2018-07-13T19:36:13.423Z,66.00
2018-07-13T19:38:42.453Z,66.50
2018-07-13T19:41:11.532Z,65.20
2018-07-13T19:43:41.030Z,65.50
2018-07-13T19:46:10.170Z,67.30
2018-07-13T19:48:39.420Z,68.00
2018-07-13T19:51:09.297Z,67.50
2018-07-13T19:53:39.526Z,69.00
2018-07-13T19:56:09.372Z,69.80
2018-07-13T19:58:39.283Z,73.40
2018-07-13T20:01:09.074Z,71.70
2018-07-13T20:03:38.287Z,74.70
2018-07-13T20:06:07.620Z,76.90
2018-07-13T20:08:37.397Z,75.70
2018-07-13T20:11:06.511Z,76.30
2018-07-13T20:13:35.810Z,76.40
2018-07-13T20:16:05.623Z,77.40
2018-07-13T20:18:35.249Z,75.50
2018-07-13T20:21:04.571Z,77.70
2018-07-13T20:23:33.938Z,78.50
2018-07-13T20:26:03.067Z,76.80
2018-07-13T20:28:32.514Z,76.30
2018-07-13T20:31:01.671Z,78.00
2018-07-13T20:33:31.525Z,80.40
2018-07-13T20:36:00.771Z,82.10
2018-07-13T20:38:30.691Z,77.70
2018-07-13T20:41:00.628Z,77.60
2018-07-13T20:43:30.534Z,77.80
2018-07-13T20:46:00.426Z,79.70
2018-07-13T20:48:29.630Z,79.00
2018-07-13T20:50:59.497Z,78.60
2018-07-13T20:55:59.266Z,77.70
2018-07-13T20:58:29.174Z,79.30
2018-07-13T21:00:59.130Z,79.90
2018-07-13T21:03:29.041Z,81.30
2018-07-13T21:05:58.939Z,79.60
2018-07-13T21:08:28.476Z,81.10
2018-07-13T21:10:58.399Z,82.40
2018-07-13T21:13:27.822Z,82.10
2018-07-13T21:15:57.310Z,83.20
2018-07-13T21:18:26.811Z,84.00
2018-07-13T21:20:55.872Z,85.30
2018-07-13T21:23:25.030Z,86.00
2018-07-13T21:25:54.886Z,86.60
2018-07-13T21:28:24.253Z,87.10
2018-07-13T21:30:53.790Z,85.90
2018-07-13T21:33:22.882Z,88.10
2018-07-13T21:35:52.374Z,89.80
2018-07-13T21:38:22.071Z,90.20
2018-07-13T21:40:51.132Z,90.70
2018-07-13T21:43:21.047Z,91.60
2018-07-13T21:45:50.111Z,92.50
2018-07-13T21:48:19.254Z,92.80
2018-07-13T21:50:48.327Z,93.90
2018-07-13T21:53:17.391Z,94.70
2018-07-13T21:55:46.727Z,95.80
2018-07-13T21:58:16.178Z,96.40
2018-07-13T22:00:45.556Z,96.90
2018-07-13T22:03:15.601Z,96.60
2018-07-13T22:05:44.934Z,97.10
2018-07-13T22:08:14.254Z,96.60
2018-07-13T22:10:43.645Z,97.70
2018-07-13T22:13:15.428Z,98.30
2018-07-13T22:15:45.052Z,98.80
2018-07-13T22:18:14.956Z,99.80
2018-07-13T22:20:44.166Z,99.90
2018-07-13T22:23:13.951Z,99.90
2018-07-13T22:25:43.135Z,99.90
2018-07-13T22:28:12.219Z,99.90
2018-07-13T22:30:42.282Z,99.90
2018-07-13T22:33:11.442Z,99.90
2018-07-13T22:35:41.018Z,99.90
2018-07-13T22:38:10.119Z,99.90
2018-07-13T22:40:39.315Z,99.90
2018-07-13T22:43:08.534Z,99.90
2018-07-13T22:45:37.602Z,99.90
2018-07-13T22:48:06.902Z,99.90
2018-07-13T22:50:36.015Z,99.90
2018-07-13T22:53:05.111Z,99.90
2018-07-13T22:55:34.218Z,99.90
2018-07-13T22:58:03.464Z,99.90
2018-07-13T23:00:32.759Z,99.90
2018-07-13T23:03:02.476Z,99.90
2018-07-13T23:05:31.955Z,99.90
2018-07-13T23:08:01.050Z,99.90
2018-07-13T23:10:30.126Z,99.90
2018-07-13T23:12:59.807Z,99.90
2018-07-13T23:15:29.002Z,99.90
2018-07-13T23:17:58.073Z,99.90
2018-07-13T23:20:27.186Z,99.90
2018-07-13T23:22:56.311Z,99.90
2018-07-13T23:25:25.487Z,99.90
2018-07-13T23:27:55.402Z,99.90
2018-07-13T23:30:24.470Z,99.90
2018-07-13T23:32:53.531Z,99.90
2018-07-13T23:35:22.663Z,99.90
2018-07-13T23:37:51.738Z,99.90
2018-07-13T23:40:21.014Z,99.90
2018-07-13T23:42:50.219Z,99.90
2018-07-13T23:45:19.310Z,99.90
2018-07-13T23:47:49.066Z,99.90
2018-07-13T23:52:48.050Z,99.90
2018-07-13T23:55:17.915Z,99.90
2018-07-13T23:57:47.779Z,99.90
